Time;durP1;ratioP1;P1;durP2;ratioP2;P2;SDS_P1;SDS_P2;PMS_P1;PMS_P2;Temp;Humidity;BMP_temperature;BMP_pressure;BME280_temperature;BME280_humidity;BME280_pressure;Samples;Min_cycle;Max_cycle;Signal;HPM_P1;HPM_P2
2022/02/10 00:06:40;;;;;;;;;;;8.90;99.90;;;;;;8419845;28;19924;-75
2022/02/10 00:36:37;;;;;;;;;;;8.90;99.90;;;;;;8413098;28;19962;-76
2022/02/10 00:40:38;;;;;;;;;;;8.90;99.90;;;;;;8397375;28;19924;-76
2022/02/10 00:44:40;;;;;;;;;;;8.80;99.90;;;;;;8406317;28;19940;-76
2022/02/10 00:48:42;;;;;;;;;;;8.80;99.90;;;;;;8414197;28;19928;-76
2022/02/10 00:52:45;;;;;;;;;;;8.90;99.90;;;;;;8423396;28;20375;-75
2022/02/10 00:56:46;;;;;;;;;;;8.90;99.90;;;;;;8389252;28;20268;-76
2022/02/10 01:13:56;;;;;;;;;;;8.90;99.90;;;;;;8410544;28;19928;-76
2022/02/10 01:30:59;;;;;;;;;;;8.90;99.90;;;;;;8412135;28;20310;-76
2022/02/10 01:35:04;;;;;;;;;;;8.90;99.90;;;;;;8419817;28;19923;-75
2022/02/10 01:39:07;;;;;;;;;;;8.90;99.90;;;;;;8411023;28;19933;-76
2022/02/10 02:05:25;;;;;;;;;;;8.80;99.90;;;;;;8417276;28;19971;-76
2022/02/10 02:09:26;;;;;;;;;;;8.80;99.90;;;;;;8422257;28;19978;-75
2022/02/10 02:13:28;;;;;;;;;;;8.70;99.90;;;;;;8396216;28;19929;-76
2022/02/10 02:17:30;;;;;;;;;;;8.70;99.90;;;;;;8413083;28;20026;-75
2022/02/10 02:21:34;;;;;;;;;;;8.70;99.90;;;;;;8418521;28;19967;-76
2022/02/10 02:25:36;;;;;;;;;;;8.70;99.90;;;;;;8404372;28;20263;-75
2022/02/10 02:29:45;;;;;;;;;;;8.70;99.90;;;;;;8379013;28;19925;-75
2022/02/10 02:34:13;;;;;;;;;;;8.70;99.90;;;;;;8390503;28;19971;-76
2022/02/10 03:08:21;;;;;;;;;;;8.50;99.90;;;;;;8388580;28;19967;-76
2022/02/10 03:12:23;;;;;;;;;;;8.50;99.90;;;;;;8382326;28;20474;-76
2022/02/10 04:04:17;;;;;;;;;;;8.40;99.90;;;;;;8407999;28;20372;-76
2022/02/10 04:17:32;;;;;;;;;;;8.30;99.90;;;;;;8417857;28;19924;-76
2022/02/10 04:30:44;;;;;;;;;;;8.30;99.90;;;;;;8417565;28;20872;-75
2022/02/10 05:00:32;;;;;;;;;;;8.20;99.90;;;;;;8412022;28;19947;-75
2022/02/10 05:17:42;;;;;;;;;;;8.20;99.90;;;;;;8419873;28;19967;-76
2022/02/10 05:22:00;;;;;;;;;;;8.20;99.90;;;;;;8417662;28;19966;-76
2022/02/10 05:34:56;;;;;;;;;;;8.20;99.90;;;;;;8427245;28;21297;-75
2022/02/10 05:39:14;;;;;;;;;;;8.20;99.90;;;;;;8392240;28;19956;-76
2022/02/10 08:53:24;;;;;;;;;;;7.90;99.90;;;;;;8408636;28;19963;-76
2022/02/10 08:57:06;;;;;;;;;;;7.90;99.90;;;;;;8402752;28;19935;-76
2022/02/10 09:05:56;;;;;;;;;;;8.00;99.90;;;;;;8406472;28;19970;-76
2022/02/10 09:10:51;;;;;;;;;;;8.00;99.90;;;;;;8420052;28;19931;-76
2022/02/10 09:15:20;;;;;;;;;;;8.10;99.90;;;;;;8413723;28;19924;-76
2022/02/10 09:59:03;;;;;;;;;;;8.90;99.90;;;;;;8407203;28;19951;-76
2022/02/10 10:03:14;;;;;;;;;;;8.90;99.90;;;;;;8405152;28;19928;-76
2022/02/10 10:16:39;;;;;;;;;;;9.40;99.90;;;;;;8416135;28;20343;-76
2022/02/10 10:21:26;;;;;;;;;;;9.40;99.90;;;;;;8410812;28;19924;-76
2022/02/10 10:51:36;;;;;;;;;;;10.30;99.90;;;;;;8406502;28;19925;-76
2022/02/10 11:22:41;;;;;;;;;;;11.00;99.90;;;;;;8423433;28;19924;-75
2022/02/10 11:40:03;;;;;;;;;;;10.10;99.90;;;;;;8416734;28;20291;-75
2022/02/10 13:03:13;;;;;;;;;;;10.30;99.90;;;;;;8401541;28;19931;-75
2022/02/10 14:20:52;;;;;;;;;;;9.40;99.90;;;;;;8409792;28;19967;-75
2022/02/10 14:29:14;;;;;;;;;;;9.40;99.90;;;;;;8410816;28;19924;-75
2022/02/10 14:33:22;;;;;;;;;;;9.40;99.90;;;;;;8399325;28;19924;-76
2022/02/10 15:30:04;;;;;;;;;;;8.80;99.90;;;;;;8419376;28;19931;-76
2022/02/10 15:48:04;;;;;;;;;;;8.30;99.90;;;;;;8408418;28;20411;-75
2022/02/10 16:17:00;;;;;;;;;;;8.00;99.90;;;;;;8396804;28;19939;-75
2022/02/10 16:21:03;;;;;;;;;;;7.90;99.90;;;;;;8396014;28;19932;-76
2022/02/10 16:25:08;;;;;;;;;;;7.80;99.90;;;;;;8398699;28;20282;-75
2022/02/10 16:29:16;;;;;;;;;;;7.80;99.90;;;;;;8394736;28;19932;-75
2022/02/10 16:33:17;;;;;;;;;;;7.70;99.90;;;;;;8398308;28;19971;-76
2022/02/10 16:37:24;;;;;;;;;;;7.70;99.90;;;;;;8391389;28;19943;-76
2022/02/10 16:41:27;;;;;;;;;;;7.60;99.90;;;;;;8377203;28;19939;-75
2022/02/10 16:45:33;;;;;;;;;;;7.60;99.90;;;;;;8395810;28;19924;-75
2022/02/10 16:49:46;;;;;;;;;;;7.60;99.90;;;;;;8402762;28;19951;-76
2022/02/10 16:54:00;;;;;;;;;;;7.50;99.90;;;;;;8392112;28;19936;-76
2022/02/10 17:02:45;;;;;;;;;;;7.40;99.90;;;;;;8395162;28;20312;-76
2022/02/10 17:20:28;;;;;;;;;;;7.30;99.90;;;;;;8398435;28;19967;-75
2022/02/10 17:28:51;;;;;;;;;;;7.20;99.90;;;;;;8389859;28;19964;-75
2022/02/10 17:45:51;;;;;;;;;;;7.10;99.90;;;;;;8365071;28;19928;-75
2022/02/10 17:54:13;;;;;;;;;;;7.00;99.90;;;;;;8398183;28;19935;-75
2022/02/10 17:58:16;;;;;;;;;;;7.00;99.90;;;;;;8387996;28;20161;-75
2022/02/10 18:02:18;;;;;;;;;;;7.00;99.90;;;;;;8396115;28;19964;-75
2022/02/10 18:07:04;;;;;;;;;;;6.90;99.90;;;;;;8371630;28;20345;-75
2022/02/10 18:15:12;;;;;;;;;;;6.90;99.90;;;;;;8391747;28;19939;-75
2022/02/10 18:19:23;;;;;;;;;;;6.80;99.90;;;;;;8402148;28;19924;-75
2022/02/10 18:23:35;;;;;;;;;;;6.80;99.90;;;;;;8393136;28;19974;-75
2022/02/10 18:27:59;;;;;;;;;;;6.80;99.90;;;;;;8392791;28;19951;-74
2022/02/10 19:10:55;;;;;;;;;;;6.50;99.90;;;;;;8350667;28;19970;-75
2022/02/10 19:15:08;;;;;;;;;;;6.40;99.90;;;;;;8391226;28;19928;-75
2022/02/10 19:19:13;;;;;;;;;;;6.40;99.90;;;;;;8392127;28;19960;-75
2022/02/10 19:23:15;;;;;;;;;;;6.30;99.90;;;;;;8396364;28;20015;-75
2022/02/10 19:27:16;;;;;;;;;;;6.30;99.90;;;;;;8380174;28;20552;-75
2022/02/10 19:31:21;;;;;;;;;;;6.30;99.90;;;;;;8392191;28;19970;-75
2022/02/10 19:35:25;;;;;;;;;;;6.30;99.90;;;;;;8392799;28;20295;-75
2022/02/10 19:39:27;;;;;;;;;;;6.20;99.90;;;;;;8393712;28;19935;-75
2022/02/10 19:43:29;;;;;;;;;;;6.20;99.90;;;;;;8393312;28;19924;-75
2022/02/10 19:47:31;;;;;;;;;;;6.20;99.90;;;;;;8396024;28;19926;-75
2022/02/10 19:51:32;;;;;;;;;;;6.10;99.90;;;;;;8394705;28;19967;-75
2022/02/10 19:55:36;;;;;;;;;;;6.10;99.90;;;;;;8397787;28;20450;-75
2022/02/10 19:59:38;;;;;;;;;;;6.10;99.90;;;;;;8398632;28;19920;-75
2022/02/10 20:03:40;;;;;;;;;;;6.00;99.90;;;;;;8393742;28;19928;-75
2022/02/10 20:07:47;;;;;;;;;;;6.00;99.90;;;;;;8398811;28;19958;-75
2022/02/10 20:11:51;;;;;;;;;;;5.90;99.90;;;;;;8405193;28;19967;-75
2022/02/10 20:15:54;;;;;;;;;;;5.90;99.90;;;;;;8382593;28;19920;-75
2022/02/10 20:19:56;;;;;;;;;;;5.90;99.90;;;;;;8400471;28;21274;-75
2022/02/10 20:23:57;;;;;;;;;;;5.80;99.90;;;;;;8394062;28;20406;-75
2022/02/10 20:27:59;;;;;;;;;;;5.80;99.90;;;;;;8391331;28;20026;-74
2022/02/10 20:32:01;;;;;;;;;;;5.80;99.90;;;;;;8396205;28;20171;-75
2022/02/10 20:36:04;;;;;;;;;;;5.70;99.90;;;;;;8391779;28;20364;-75
2022/02/10 20:40:06;;;;;;;;;;;5.70;99.90;;;;;;8389925;28;20356;-75
2022/02/10 20:44:08;;;;;;;;;;;5.60;99.90;;;;;;8395158;28;19995;-75
2022/02/10 20:48:10;;;;;;;;;;;5.50;99.90;;;;;;8404264;28;19978;-75
2022/02/10 20:52:12;;;;;;;;;;;5.50;99.90;;;;;;8402108;28;20313;-75
2022/02/10 20:56:17;;;;;;;;;;;5.40;99.90;;;;;;8371667;28;20059;-75
2022/02/10 21:00:20;;;;;;;;;;;5.30;99.90;;;;;;8389994;28;20018;-75
2022/02/10 21:04:21;;;;;;;;;;;5.30;99.90;;;;;;8391177;28;19968;-75
2022/02/10 21:09:10;;;;;;;;;;;5.20;99.90;;;;;;8391389;28;20401;-75
2022/02/10 21:12:48;;;;;;;;;;;5.20;99.90;;;;;;8379748;28;19920;-75
2022/02/10 21:16:49;;;;;;;;;;;5.20;99.90;;;;;;8375130;28;20004;-75
2022/02/10 21:20:56;;;;;;;;;;;5.30;99.90;;;;;;8391363;28;20352;-75
2022/02/10 21:25:08;;;;;;;;;;;5.30;99.90;;;;;;8393722;28;19963;-75
2022/02/10 21:29:10;;;;;;;;;;;5.30;99.90;;;;;;8369971;28;20581;-75
2022/02/10 21:33:20;;;;;;;;;;;5.30;99.90;;;;;;8390965;28;19978;-75
2022/02/10 21:37:25;;;;;;;;;;;5.30;99.90;;;;;;8394352;28;19975;-75
2022/02/10 22:03:29;;;;;;;;;;;5.00;99.90;;;;;;8397095;28;20447;-75
2022/02/10 22:20:22;;;;;;;;;;;4.60;99.90;;;;;;8408901;28;19927;-75
2022/02/10 22:24:24;;;;;;;;;;;4.50;99.90;;;;;;8406637;28;19967;-75
2022/02/10 22:36:54;;;;;;;;;;;4.30;99.90;;;;;;8411997;28;19926;-75
2022/02/10 22:41:02;;;;;;;;;;;4.20;99.90;;;;;;8422230;28;19943;-75
2022/02/10 22:45:04;;;;;;;;;;;4.20;99.90;;;;;;8390487;28;19978;-75
2022/02/10 22:49:06;;;;;;;;;;;4.20;99.90;;;;;;8416174;28;19960;-75
2022/02/10 22:53:07;;;;;;;;;;;4.10;99.90;;;;;;8393356;28;19937;-75
2022/02/10 22:57:09;;;;;;;;;;;4.10;99.90;;;;;;8408025;28;19978;-75
2022/02/10 23:01:11;;;;;;;;;;;4.10;99.90;;;;;;8403904;28;19956;-75
2022/02/10 23:05:13;;;;;;;;;;;4.10;99.90;;;;;;8390055;28;20373;-74
2022/02/10 23:09:26;;;;;;;;;;;4.10;99.90;;;;;;8410395;28;19924;-75
2022/02/10 23:13:29;;;;;;;;;;;4.10;99.90;;;;;;8397639;28;20062;-75
2022/02/10 23:17:31;;;;;;;;;;;4.10;99.90;;;;;;8404916;28;19963;-75
2022/02/10 23:21:35;;;;;;;;;;;4.10;99.90;;;;;;8412263;28;19931;-75
2022/02/10 23:25:37;;;;;;;;;;;4.10;99.90;;;;;;8418286;28;19962;-75
2022/02/10 23:29:39;;;;;;;;;;;4.10;99.90;;;;;;8412040;28;20301;-75
2022/02/10 23:33:43;;;;;;;;;;;4.00;99.90;;;;;;8405726;28;20014;-75
2022/02/10 23:37:45;;;;;;;;;;;4.00;99.90;;;;;;8387800;28;19966;-75
2022/02/10 23:42:32;;;;;;;;;;;4.00;99.90;;;;;;8410417;28;19920;-75
2022/02/10 23:46:12;;;;;;;;;;;4.00;99.90;;;;;;8395846;28;19982;-75
2022/02/10 23:50:17;;;;;;;;;;;4.00;99.90;;;;;;8407000;28;20422;-75
2022/02/10 23:54:19;;;;;;;;;;;3.90;99.90;;;;;;8409960;28;20024;-74
